Time;durP1;ratioP1;P1;durP2;ratioP2;P2;SDS_P1;SDS_P2;PMS_P1;PMS_P2;Temp;Humidity;BMP_temperature;BMP_pressure;BME280_temperature;BME280_humidity;BME280_pressure;Samples;Min_cycle;Max_cycle;Signal;HPM_P1;HPM_P2
2023/05/15 00:00:39;;;;;;;0.10;0.10;;;13.20;99.90;;;;;;5076007;28;20195;-80
2023/05/15 00:03:04;;;;;;;0.10;0.10;;;13.30;99.90;;;;;;5073583;28;20217;-80
2023/05/15 00:05:30;;;;;;;0.10;0.10;;;13.30;99.90;;;;;;5076745;28;20187;-81
2023/05/15 00:07:57;;;;;;;0.10;0.10;;;13.40;99.90;;;;;;5072103;28;20199;-80
2023/05/15 00:10:22;;;;;;;0.10;0.10;;;13.40;99.90;;;;;;5072168;28;20655;-81
2023/05/15 00:12:49;;;;;;;0.10;0.10;;;13.30;99.90;;;;;;5073158;28;20221;-80
2023/05/15 00:15:14;;;;;;;0.10;0.10;;;13.30;99.90;;;;;;5075109;28;20897;-80
2023/05/15 00:17:40;;;;;;;0.10;0.10;;;13.30;99.90;;;;;;5074686;28;20252;-80
2023/05/15 00:20:06;;;;;;;0.10;0.10;;;13.20;99.90;;;;;;5071579;28;20274;-81
2023/05/15 00:22:32;;;;;;;0.10;0.10;;;13.20;99.90;;;;;;5073495;28;20202;-81
2023/05/15 00:24:58;;;;;;;0.10;0.10;;;13.20;99.90;;;;;;5073848;28;20333;-81
2023/05/15 00:27:23;;;;;;;0.10;0.10;;;13.20;99.90;;;;;;5075149;28;21319;-80
2023/05/15 00:29:49;;;;;;;0.10;0.10;;;13.20;99.90;;;;;;5072526;28;20248;-80
2023/05/15 00:32:15;;;;;;;0.10;0.10;;;13.20;99.90;;;;;;5072915;28;20218;-80
2023/05/15 00:34:40;;;;;;;0.10;0.10;;;13.20;99.90;;;;;;5075745;28;20695;-81
2023/05/15 00:37:07;;;;;;;0.10;0.10;;;13.30;99.90;;;;;;5074210;28;20341;-80
2023/05/15 00:39:32;;;;;;;0.10;0.10;;;13.20;99.90;;;;;;5073792;28;20184;-80
2023/05/15 00:41:59;;;;;;;0.10;0.10;;;13.20;99.90;;;;;;5071666;28;20401;-81
2023/05/15 00:44:26;;;;;;;0.10;0.10;;;13.20;99.90;;;;;;5072330;28;20179;-81
2023/05/15 00:46:53;;;;;;;0.10;0.10;;;13.10;99.90;;;;;;5073130;28;21234;-80
2023/05/15 00:49:21;;;;;;;0.10;0.10;;;13.10;99.90;;;;;;5075169;28;20264;-80
2023/05/15 00:51:47;;;;;;;0.10;0.10;;;13.00;99.90;;;;;;5067516;28;20195;-81
2023/05/15 00:54:12;;;;;;;0.10;0.10;;;12.90;99.90;;;;;;5070900;28;20182;-80
2023/05/15 00:56:39;;;;;;;0.10;0.10;;;12.90;99.90;;;;;;5070522;28;20234;-81
2023/05/15 00:59:06;;;;;;;0.10;0.10;;;13.00;99.90;;;;;;5073188;28;20181;-80
2023/05/15 01:01:33;;;;;;;0.10;0.10;;;13.00;99.90;;;;;;5072865;28;20204;-80
2023/05/15 01:04:00;;;;;;;0.10;0.10;;;12.90;99.90;;;;;;5073916;28;20625;-80
2023/05/15 01:06:27;;;;;;;0.10;0.10;;;12.80;99.90;;;;;;5074476;28;20187;-81
2023/05/15 01:08:56;;;;;;;0.10;0.10;;;12.70;99.90;;;;;;5072265;28;20374;-81
2023/05/15 01:11:26;;;;;;;0.10;0.10;;;12.70;99.90;;;;;;5075100;28;20183;-80
2023/05/15 01:13:51;;;;;;;0.10;0.10;;;12.70;99.90;;;;;;5072132;28;20201;-80
2023/05/15 01:16:17;;;;;;;0.10;0.10;;;12.70;99.90;;;;;;5070677;28;20187;-81
2023/05/15 01:18:42;;;;;;;0.10;0.10;;;12.80;99.90;;;;;;5069132;28;20192;-80
2023/05/15 01:21:35;;;;;;;0.10;0.10;;;12.80;99.90;;;;;;5070897;28;20179;-80
2023/05/15 01:24:38;;;;;;;0.10;0.10;;;12.80;99.90;;;;;;5075113;28;20208;-80
2023/05/15 01:27:45;;;;;;;0.10;0.10;;;12.80;99.90;;;;;;5075328;28;20248;-80
2023/05/15 01:30:19;;;;;;;0.10;0.10;;;12.70;99.90;;;;;;4996579;28;20193;-80
2023/05/15 01:32:49;;;;;;;0.10;0.10;;;12.60;99.90;;;;;;4998417;28;20208;-80
2023/05/15 01:35:21;;;;;;;0.10;0.10;;;12.50;99.90;;;;;;5039256;28;20224;-80
2023/05/15 01:37:51;;;;;;;0.10;0.10;;;12.50;99.90;;;;;;5072907;28;20214;-81
2023/05/15 01:40:20;;;;;;;0.10;0.10;;;12.50;99.90;;;;;;5073731;28;20164;-80
2023/05/15 01:42:59;;;;;;;0.10;0.10;;;12.40;99.90;;;;;;5073078;28;20205;-81
2023/05/15 01:45:27;;;;;;;0.10;0.10;;;12.30;99.90;;;;;;5069641;28;20171;-80
2023/05/15 01:47:54;;;;;;;0.10;0.10;;;12.20;99.90;;;;;;5072269;28;20188;-80
2023/05/15 01:50:20;;;;;;;0.10;0.10;;;12.20;99.90;;;;;;5069440;28;20289;-81
2023/05/15 01:52:53;;;;;;;0.10;0.10;;;12.20;99.90;;;;;;5073703;28;20754;-80
2023/05/15 01:55:21;;;;;;;0.10;0.10;;;12.20;99.90;;;;;;5070974;28;20184;-81
2023/05/15 01:57:49;;;;;;;0.10;0.10;;;12.30;99.90;;;;;;5070942;28;20307;-81
2023/05/15 02:00:16;;;;;;;0.10;0.10;;;12.30;99.90;;;;;;5070353;28;20181;-80
2023/05/15 02:02:42;;;;;;;0.10;0.10;;;12.30;99.90;;;;;;5075452;28;20287;-80
2023/05/15 02:05:09;;;;;;;0.10;0.10;;;12.40;99.90;;;;;;5073985;28;20603;-80
2023/05/15 02:07:35;;;;;;;0.10;0.10;;;12.50;99.90;;;;;;5070897;28;20186;-81
2023/05/15 02:10:02;;;;;;;0.10;0.10;;;12.50;99.90;;;;;;5072296;28;20595;-80
2023/05/15 02:12:27;;;;;;;0.10;0.10;;;12.50;99.90;;;;;;5070253;28;20284;-80
2023/05/15 02:14:56;;;;;;;0.10;0.10;;;12.50;99.90;;;;;;5071426;28;20215;-81
2023/05/15 02:17:22;;;;;;;0.10;0.10;;;12.40;99.90;;;;;;5072544;28;20208;-81
2023/05/15 02:19:48;;;;;;;0.10;0.10;;;12.40;99.90;;;;;;5072066;28;20232;-81
2023/05/15 02:22:14;;;;;;;0.10;0.10;;;12.40;99.90;;;;;;5071085;28;20202;-80
2023/05/15 02:24:39;;;;;;;0.00;0.00;;;12.40;99.90;;;;;;5073841;28;20190;-80
2023/05/15 02:27:13;;;;;;;0.10;0.10;;;12.40;99.90;;;;;;5074642;28;20288;-80
2023/05/15 02:30:00;;;;;;;0.10;0.10;;;12.30;99.90;;;;;;5073593;28;20183;-80
2023/05/15 02:32:32;;;;;;;0.10;0.10;;;12.20;99.90;;;;;;5072007;28;20212;-80
2023/05/15 02:35:23;;;;;;;0.10;0.10;;;12.10;99.90;;;;;;5074427;28;20191;-80
2023/05/15 02:37:53;;;;;;;0.10;0.10;;;12.10;99.90;;;;;;5070260;28;20254;-80
2023/05/15 02:40:22;;;;;;;0.10;0.10;;;11.90;99.90;;;;;;5087675;28;20191;-81
2023/05/15 02:42:48;;;;;;;0.10;0.10;;;11.90;99.90;;;;;;5071506;28;20232;-81
2023/05/15 02:45:14;;;;;;;0.10;0.10;;;11.90;99.90;;;;;;5071666;28;20169;-80
2023/05/15 02:47:41;;;;;;;0.10;0.10;;;11.90;99.90;;;;;;5071481;28;20681;-80
2023/05/15 02:50:07;;;;;;;0.10;0.10;;;12.00;99.90;;;;;;5070675;28;20185;-81
2023/05/15 02:52:36;;;;;;;0.10;0.10;;;12.00;99.90;;;;;;5073732;28;20213;-81
2023/05/15 02:55:01;;;;;;;0.10;0.10;;;12.10;99.90;;;;;;5077275;28;20210;-80
2023/05/15 02:57:27;;;;;;;0.10;0.10;;;12.20;99.90;;;;;;5075785;28;20254;-80
2023/05/15 02:59:54;;;;;;;0.10;0.10;;;12.30;99.90;;;;;;5075612;28;20191;-80
2023/05/15 03:02:20;;;;;;;0.10;0.10;;;12.30;99.90;;;;;;5073681;28;20286;-80
2023/05/15 03:04:45;;;;;;;0.10;0.10;;;12.30;99.90;;;;;;5074291;28;20755;-80
2023/05/15 03:07:11;;;;;;;0.10;0.10;;;12.40;99.90;;;;;;5074773;28;20188;-81
2023/05/15 03:09:36;;;;;;;0.10;0.10;;;12.40;99.90;;;;;;5074233;28;20252;-80
2023/05/15 03:12:02;;;;;;;0.10;0.10;;;12.40;99.90;;;;;;5075690;28;20695;-80
2023/05/15 03:14:27;;;;;;;0.10;0.10;;;12.30;99.90;;;;;;5074539;28;20228;-81
2023/05/15 03:16:53;;;;;;;0.10;0.10;;;12.30;99.90;;;;;;5076383;28;20225;-81
2023/05/15 03:19:18;;;;;;;0.10;0.10;;;12.20;99.90;;;;;;5074265;28;20543;-81
2023/05/15 03:21:44;;;;;;;0.10;0.10;;;12.30;99.90;;;;;;5075647;28;20195;-81
2023/05/15 03:24:09;;;;;;;0.10;0.10;;;12.30;99.90;;;;;;5074145;28;20249;-81
2023/05/15 03:26:35;;;;;;;0.10;0.10;;;12.30;99.90;;;;;;5076645;28;20202;-81
2023/05/15 03:29:01;;;;;;;0.10;0.10;;;12.40;99.90;;;;;;5073426;28;20185;-80
2023/05/15 03:31:30;;;;;;;0.10;0.10;;;12.40;99.90;;;;;;5075109;28;20692;-81
2023/05/15 03:33:55;;;;;;;0.10;0.10;;;12.40;99.90;;;;;;5073154;28;20291;-81
2023/05/15 03:36:21;;;;;;;0.10;0.10;;;12.30;99.90;;;;;;5075671;28;20194;-81
2023/05/15 03:38:47;;;;;;;0.10;0.10;;;12.40;99.90;;;;;;5074263;28;20185;-81
2023/05/15 03:41:15;;;;;;;0.10;0.10;;;12.30;99.90;;;;;;5075632;28;20185;-80
2023/05/15 03:43:40;;;;;;;0.10;0.10;;;12.20;99.90;;;;;;5073692;28;20755;-80
2023/05/15 03:46:06;;;;;;;0.07;0.07;;;12.20;99.90;;;;;;5074484;28;20199;-80
2023/05/15 03:48:31;;;;;;;0.10;0.10;;;12.10;99.90;;;;;;5076669;28;20188;-81
2023/05/15 03:50:57;;;;;;;0.10;0.10;;;12.10;99.90;;;;;;5075229;28;20619;-80
2023/05/15 03:53:22;;;;;;;0.10;0.10;;;12.10;99.90;;;;;;5074602;28;20200;-81
2023/05/15 03:55:48;;;;;;;0.10;0.10;;;12.00;99.90;;;;;;5075322;28;20187;-80
2023/05/15 03:58:13;;;;;;;0.10;0.10;;;11.90;99.90;;;;;;5074066;28;20210;-80
2023/05/15 04:00:39;;;;;;;0.10;0.10;;;11.90;99.90;;;;;;5073321;28;20271;-80
2023/05/15 04:03:05;;;;;;;0.10;0.10;;;12.50;99.90;;;;;;5071142;28;20296;-80
2023/05/15 04:05:30;;;;;;;0.10;0.10;;;13.20;99.90;;;;;;5069921;28;20184;-79
2023/05/15 04:07:55;;;;;;;0.10;0.10;;;13.50;99.90;;;;;;5073169;28;20784;-81
2023/05/15 04:10:21;;;;;;;0.10;0.10;;;13.50;99.90;;;;;;5074041;28;20188;-81
2023/05/15 04:12:47;;;;;;;0.10;0.10;;;13.40;99.90;;;;;;5075348;28;20206;-80
2023/05/15 04:15:12;;;;;;;0.10;0.10;;;13.30;99.90;;;;;;5076151;28;21153;-81
2023/05/15 04:17:38;;;;;;;0.10;0.10;;;13.10;99.90;;;;;;5074888;28;20937;-80
2023/05/15 04:20:05;;;;;;;0.10;0.10;;;13.10;99.90;;;;;;5072792;28;21134;-81
2023/05/15 04:22:30;;;;;;;0.10;0.10;;;13.00;99.90;;;;;;5073395;28;20198;-80
2023/05/15 04:24:56;;;;;;;0.10;0.10;;;13.00;99.90;;;;;;5072227;28;20217;-80
2023/05/15 04:27:21;;;;;;;0.10;0.10;;;12.90;99.90;;;;;;5074494;28;20274;-81
2023/05/15 04:29:47;;;;;;;0.10;0.10;;;13.20;99.90;;;;;;5074161;28;20196;-81
2023/05/15 04:32:12;;;;;;;0.10;0.10;;;13.30;99.90;;;;;;5074101;28;20219;-80
2023/05/15 04:34:39;;;;;;;0.10;0.10;;;13.30;99.90;;;;;;5074773;28;20187;-80
2023/05/15 04:37:05;;;;;;;0.00;0.00;;;13.30;99.90;;;;;;5074261;28;20212;-80
2023/05/15 04:39:31;;;;;;;0.10;0.10;;;13.40;99.90;;;;;;5072168;28;20185;-81
2023/05/15 04:41:56;;;;;;;0.10;0.10;;;13.40;99.90;;;;;;5074185;28;20187;-81
2023/05/15 04:44:22;;;;;;;0.10;0.10;;;13.30;99.90;;;;;;5072838;28;20211;-81
2023/05/15 04:46:47;;;;;;;0.10;0.10;;;13.20;99.90;;;;;;5068870;28;20196;-81
2023/05/15 04:49:12;;;;;;;0.10;0.10;;;13.20;99.90;;;;;;5073670;28;20280;-81
2023/05/15 04:51:38;;;;;;;0.10;0.10;;;13.30;99.90;;;;;;5073864;28;20652;-81
2023/05/15 04:54:04;;;;;;;0.10;0.10;;;13.30;99.90;;;;;;5073095;28;20257;-81
2023/05/15 04:56:29;;;;;;;0.10;0.10;;;13.50;99.90;;;;;;5076282;28;20226;-80
2023/05/15 04:58:55;;;;;;;0.10;0.10;;;13.70;99.90;;;;;;5074662;28;21360;-80
2023/05/15 05:01:20;;;;;;;0.10;0.10;;;13.80;99.90;;;;;;5072540;28;20273;-81
2023/05/15 05:03:46;;;;;;;0.10;0.10;;;13.90;99.90;;;;;;5072746;28;20215;-80
2023/05/15 05:06:11;;;;;;;0.03;0.03;;;14.00;99.90;;;;;;5074012;28;20885;-81
2023/05/15 05:08:37;;;;;;;0.10;0.10;;;14.10;99.90;;;;;;5070107;28;20189;-80
2023/05/15 05:11:02;;;;;;;0.10;0.10;;;14.20;99.90;;;;;;5070556;28;20206;-81
2023/05/15 05:13:28;;;;;;;0.10;0.10;;;14.20;99.90;;;;;;5073351;28;20199;-81
2023/05/15 05:15:53;;;;;;;0.10;0.10;;;14.30;99.90;;;;;;5070956;28;20229;-82
2023/05/15 05:18:19;;;;;;;0.10;0.10;;;14.50;99.90;;;;;;5070302;28;20321;-81
2023/05/15 05:20:44;;;;;;;0.10;0.10;;;14.60;99.90;;;;;;5071622;28;20268;-81
2023/05/15 05:23:10;;;;;;;0.10;0.10;;;14.60;99.90;;;;;;5073144;28;20684;-81
2023/05/15 05:25:35;;;;;;;0.10;0.10;;;14.80;99.90;;;;;;5071936;28;20245;-81
2023/05/15 05:28:01;;;;;;;0.10;0.10;;;14.90;99.90;;;;;;5064225;28;20188;-81
2023/05/15 05:30:26;;;;;;;0.10;0.10;;;15.10;99.90;;;;;;5073818;28;20187;-81
2023/05/15 05:32:52;;;;;;;0.10;0.10;;;15.30;99.90;;;;;;5074255;28;20212;-81
2023/05/15 05:35:18;;;;;;;0.10;0.10;;;15.50;99.90;;;;;;5073017;28;20184;-81
2023/05/15 05:37:43;;;;;;;0.10;0.10;;;15.70;99.90;;;;;;5071218;28;20598;-81
2023/05/15 05:40:09;;;;;;;0.10;0.10;;;15.70;99.90;;;;;;5071530;28;20189;-81
2023/05/15 05:42:35;;;;;;;0.10;0.10;;;15.80;99.90;;;;;;5072034;28;20208;-81
2023/05/15 05:45:00;;;;;;;0.10;0.10;;;15.80;99.90;;;;;;5071415;28;20264;-81
2023/05/15 05:47:26;;;;;;;0.10;0.10;;;15.60;99.90;;;;;;5071777;28;20835;-81
2023/05/15 05:49:51;;;;;;;0.10;0.10;;;15.90;99.90;;;;;;5072322;28;20200;-81
2023/05/15 05:52:17;;;;;;;0.10;0.10;;;15.90;99.90;;;;;;5072294;28;20204;-80
2023/05/15 05:54:45;;;;;;;0.10;0.10;;;16.00;99.90;;;;;;5071680;28;20193;-81
2023/05/15 05:57:10;;;;;;;0.10;0.10;;;16.10;99.90;;;;;;5072161;28;20402;-81
2023/05/15 05:59:36;;;;;;;0.10;0.10;;;16.30;99.90;;;;;;5070579;28;20287;-81
2023/05/15 06:02:02;;;;;;;0.10;0.10;;;15.90;99.90;;;;;;5071869;28;20181;-81
2023/05/15 06:04:28;;;;;;;0.10;0.10;;;15.90;99.90;;;;;;5079845;28;20203;-81
2023/05/15 06:06:54;;;;;;;0.10;0.10;;;15.80;99.90;;;;;;5079033;28;20191;-81
2023/05/15 06:09:20;;;;;;;0.10;0.10;;;15.90;99.90;;;;;;5078696;28;20188;-83
2023/05/15 06:11:46;;;;;;;0.10;0.10;;;15.90;99.90;;;;;;5078682;28;20734;-82
2023/05/15 06:14:11;;;;;;;0.10;0.10;;;15.70;99.90;;;;;;5074517;28;20204;-82
2023/05/15 06:16:37;;;;;;;0.10;0.10;;;15.80;99.90;;;;;;5071926;28;20765;-82
2023/05/15 06:19:02;;;;;;;0.10;0.10;;;15.80;99.90;;;;;;5068217;28;20706;-81
2023/05/15 06:21:28;;;;;;;0.10;0.10;;;15.80;99.90;;;;;;5072271;28;20657;-82
2023/05/15 06:23:54;;;;;;;0.10;0.10;;;15.90;99.90;;;;;;5072056;28;20663;-83
2023/05/15 06:26:21;;;;;;;0.10;0.10;;;15.80;99.90;;;;;;5069447;28;20185;-81
2023/05/15 06:28:47;;;;;;;0.10;0.10;;;15.50;99.90;;;;;;5076323;28;20193;-81
2023/05/15 06:31:12;;;;;;;0.10;0.10;;;15.60;99.90;;;;;;5073152;28;20195;-81
2023/05/15 06:33:38;;;;;;;0.10;0.10;;;15.90;99.90;;;;;;5070262;28;20204;-81
2023/05/15 06:36:03;;;;;;;0.10;0.10;;;15.20;99.90;;;;;;5069992;28;20177;-81
2023/05/15 06:38:29;;;;;;;0.10;0.10;;;15.10;99.90;;;;;;5067309;28;20733;-81
2023/05/15 06:40:55;;;;;;;0.17;0.17;;;14.80;99.90;;;;;;5071427;28;20185;-81
2023/05/15 06:43:21;;;;;;;0.10;0.10;;;14.70;99.90;;;;;;5066774;28;20298;-82
2023/05/15 06:45:48;;;;;;;0.10;0.10;;;14.90;99.90;;;;;;5068679;28;21752;-81
2023/05/15 06:48:14;;;;;;;0.20;0.20;;;15.00;99.90;;;;;;5071643;28;20236;-83
2023/05/15 06:50:39;;;;;;;0.10;0.10;;;15.20;99.90;;;;;;5063875;28;20608;-82
2023/05/15 06:53:05;;;;;;;0.10;0.10;;;15.60;99.90;;;;;;5070410;28;20785;-81
2023/05/15 06:55:32;;;;;;;0.10;0.10;;;15.90;99.90;;;;;;5067432;28;20224;-82
2023/05/15 06:57:58;;;;;;;0.10;0.10;;;15.80;99.90;;;;;;5062517;28;20253;-82
2023/05/15 07:00:23;;;;;;;0.10;0.10;;;15.90;99.90;;;;;;5068919;28;20259;-82
2023/05/15 07:02:49;;;;;;;0.10;0.10;;;16.30;99.90;;;;;;5065377;28;20211;-82
2023/05/15 07:05:15;;;;;;;0.10;0.10;;;16.20;99.90;;;;;;5069654;28;20719;-81
2023/05/15 07:07:40;;;;;;;0.10;0.10;;;16.20;99.90;;;;;;5069024;28;20685;-81
2023/05/15 07:10:06;;;;;;;0.10;0.10;;;16.40;99.90;;;;;;5067808;28;20181;-80
2023/05/15 07:12:33;;;;;;;0.10;0.10;;;16.70;99.90;;;;;;5066172;28;20673;-83
2023/05/15 07:14:58;;;;;;;0.10;0.10;;;16.80;99.90;;;;;;5070328;28;20185;-85
2023/05/15 07:17:24;;;;;;;0.10;0.10;;;16.40;99.90;;;;;;5069571;28;20204;-84
2023/05/15 07:19:49;;;;;;;0.10;0.10;;;16.60;99.90;;;;;;5070808;28;20234;-86
2023/05/15 07:22:15;;;;;;;0.10;0.10;;;16.40;99.90;;;;;;5068439;28;20200;-86
2023/05/15 07:24:40;;;;;;;0.10;0.10;;;16.20;99.90;;;;;;5066685;28;20181;-84
2023/05/15 07:27:06;;;;;;;0.10;0.10;;;16.30;99.90;;;;;;5063380;28;20193;-84
2023/05/15 07:29:31;;;;;;;0.23;0.23;;;16.70;99.90;;;;;;5069032;28;20766;-83
2023/05/15 07:31:57;;;;;;;0.10;0.10;;;16.90;99.90;;;;;;5070674;28;20197;-84
2023/05/15 07:34:22;;;;;;;0.10;0.10;;;16.90;99.90;;;;;;5069149;28;20180;-84
2023/05/15 07:36:48;;;;;;;0.10;0.10;;;17.00;99.90;;;;;;5069426;28;20208;-84
2023/05/15 07:39:13;;;;;;;0.10;0.10;;;16.80;99.90;;;;;;5073568;28;20196;-84
2023/05/15 07:41:39;;;;;;;0.10;0.10;;;16.70;99.90;;;;;;5070148;28;21158;-83
2023/05/15 07:44:05;;;;;;;0.10;0.10;;;16.90;99.90;;;;;;5074149;28;20577;-84
2023/05/15 07:46:31;;;;;;;0.10;0.10;;;17.10;99.90;;;;;;5071724;28;20240;-83
2023/05/15 07:48:57;;;;;;;0.10;0.10;;;17.40;99.90;;;;;;5071154;28;20192;-84
2023/05/15 07:51:22;;;;;;;0.10;0.10;;;17.50;99.90;;;;;;5072540;28;20176;-84
2023/05/15 07:53:48;;;;;;;0.10;0.10;;;17.60;99.90;;;;;;5072457;28;20196;-84
2023/05/15 07:56:13;;;;;;;0.10;0.10;;;18.20;99.90;;;;;;5069840;28;20271;-83
2023/05/15 07:58:39;;;;;;;0.10;0.10;;;18.50;99.90;;;;;;5069409;28;20269;-83
2023/05/15 08:01:05;;;;;;;0.10;0.10;;;18.30;99.90;;;;;;5066180;28;20191;-82
2023/05/15 08:03:30;;;;;;;0.10;0.10;;;18.60;99.90;;;;;;5070314;28;20693;-83
2023/05/15 08:05:56;;;;;;;0.10;0.10;;;19.00;99.90;;;;;;5069485;28;20291;-83
2023/05/15 08:08:21;;;;;;;0.63;0.63;;;19.30;99.90;;;;;;5072022;28;20617;-83
2023/05/15 08:10:47;;;;;;;0.10;0.10;;;19.00;99.90;;;;;;5069866;28;20290;-82
2023/05/15 08:13:12;;;;;;;0.10;0.10;;;18.60;99.90;;;;;;5075304;28;20584;-83
2023/05/15 08:15:38;;;;;;;0.10;0.10;;;19.00;99.90;;;;;;5073444;28;20769;-82
2023/05/15 08:18:08;;;;;;;0.10;0.10;;;18.90;99.90;;;;;;5070746;28;20242;-82
2023/05/15 08:20:34;;;;;;;0.10;0.10;;;19.10;99.90;;;;;;5073087;28;20189;-80
2023/05/15 08:22:59;;;;;;;0.10;0.10;;;19.20;99.90;;;;;;5073518;28;20399;-81
2023/05/15 08:25:25;;;;;;;0.10;0.10;;;19.20;99.90;;;;;;5069648;28;20908;-81
2023/05/15 08:27:50;;;;;;;0.10;0.10;;;19.20;99.90;;;;;;5075301;28;20245;-81
2023/05/15 08:30:16;;;;;;;0.10;0.10;;;19.10;99.90;;;;;;5075451;28;20201;-81
2023/05/15 08:32:44;;;;;;;0.10;0.10;;;19.00;99.90;;;;;;5077531;28;20212;-80
2023/05/15 08:35:10;;;;;;;0.10;0.10;;;19.30;99.90;;;;;;5070890;28;20189;-81
2023/05/15 08:37:36;;;;;;;0.10;0.10;;;19.20;99.90;;;;;;5071302;28;20548;-81
2023/05/15 08:40:04;;;;;;;0.10;0.10;;;19.10;99.90;;;;;;5076402;28;20195;-79
2023/05/15 08:42:43;;;;;;;0.10;0.10;;;19.00;99.90;;;;;;5072486;28;20545;-81
2023/05/15 08:45:10;;;;;;;0.10;0.10;;;19.00;99.90;;;;;;5071544;28;20259;-81
2023/05/15 08:47:39;;;;;;;0.10;0.10;;;19.30;99.90;;;;;;5071321;28;20216;-81
2023/05/15 08:50:14;;;;;;;0.10;0.10;;;19.40;99.90;;;;;;5072464;28;20178;-80
2023/05/15 08:52:45;;;;;;;0.10;0.10;;;19.30;99.90;;;;;;5071099;28;20246;-82
2023/05/15 08:55:14;;;;;;;0.10;0.10;;;19.30;99.90;;;;;;5071194;28;20181;-80
2023/05/15 08:57:40;;;;;;;0.10;0.10;;;19.40;99.90;;;;;;5072194;28;20213;-80
2023/05/15 09:00:08;;;;;;;0.10;0.10;;;19.60;99.90;;;;;;5072094;28;20667;-81
2023/05/15 09:02:40;;;;;;;0.10;0.10;;;19.50;99.90;;;;;;5074067;28;20254;-81
2023/05/15 09:05:07;;;;;;;0.10;0.10;;;19.30;99.90;;;;;;5069404;28;20177;-80
2023/05/15 09:07:33;;;;;;;0.20;0.20;;;19.30;99.90;;;;;;5070734;28;21253;-81
2023/05/15 09:10:01;;;;;;;0.10;0.10;;;19.40;99.90;;;;;;5073583;28;20226;-80
2023/05/15 09:12:27;;;;;;;0.10;0.10;;;19.20;99.90;;;;;;5076744;28;20314;-80
2023/05/15 09:15:08;;;;;;;0.10;0.10;;;18.90;99.90;;;;;;5074202;28;20188;-81
2023/05/15 09:17:33;;;;;;;0.10;0.10;;;18.90;99.90;;;;;;5071200;28;20197;-81
2023/05/15 09:19:59;;;;;;;0.10;0.10;;;19.10;99.90;;;;;;5069119;28;20387;-81
2023/05/15 09:22:24;;;;;;;3.70;3.60;;;19.10;99.90;;;;;;5070635;28;20201;-81
2023/05/15 09:24:51;;;;;;;0.10;0.10;;;19.10;99.90;;;;;;5074746;28;20250;-80
2023/05/15 09:27:18;;;;;;;0.10;0.10;;;18.70;99.90;;;;;;5073068;28;20196;-80
2023/05/15 09:29:44;;;;;;;0.10;0.10;;;19.00;99.90;;;;;;5074180;28;20186;-81
2023/05/15 09:32:12;;;;;;;0.10;0.10;;;19.10;99.90;;;;;;5071406;28;20208;-81
2023/05/15 09:34:39;;;;;;;0.10;0.10;;;19.30;99.90;;;;;;5074334;28;20190;-81
2023/05/15 09:37:07;;;;;;;0.10;0.10;;;19.30;99.90;;;;;;5074916;28;20361;-80
2023/05/15 09:39:38;;;;;;;0.10;0.10;;;19.40;99.90;;;;;;5071621;28;20191;-80
2023/05/15 09:42:09;;;;;;;0.10;0.10;;;19.60;99.90;;;;;;5068421;28;20275;-82
2023/05/15 09:44:42;;;;;;;0.10;0.10;;;19.20;99.90;;;;;;5070464;28;20803;-82
2023/05/15 09:47:10;;;;;;;0.10;0.10;;;19.10;99.90;;;;;;5069259;28;20181;-80
2023/05/15 09:49:36;;;;;;;0.10;0.10;;;19.10;99.90;;;;;;5070866;28;20258;-80
2023/05/15 09:52:02;;;;;;;0.10;0.10;;;19.20;99.90;;;;;;5072188;28;20271;-81
2023/05/15 09:54:30;;;;;;;0.30;0.30;;;19.10;99.90;;;;;;5077072;28;20196;-80
2023/05/15 09:57:10;;;;;;;0.10;0.10;;;18.70;99.90;;;;;;5070720;28;20718;-80
2023/05/15 09:59:41;;;;;;;0.10;0.10;;;19.10;99.90;;;;;;5073721;28;20255;-80
2023/05/15 10:02:07;;;;;;;0.10;0.10;;;19.20;99.90;;;;;;5069352;28;20180;-81
2023/05/15 10:04:35;;;;;;;0.10;0.10;;;19.30;99.90;;;;;;5073727;28;20211;-81
2023/05/15 10:07:01;;;;;;;0.10;0.10;;;19.70;99.90;;;;;;5080255;28;20272;-81
2023/05/15 10:09:30;;;;;;;0.10;0.10;;;19.90;99.90;;;;;;5071753;28;20348;-82
2023/05/15 10:11:57;;;;;;;0.20;0.20;;;19.70;99.90;;;;;;5069056;28;20212;-81
2023/05/15 10:14:25;;;;;;;0.10;0.10;;;20.00;99.90;;;;;;5076547;28;20214;-81
2023/05/15 10:16:52;;;;;;;0.10;0.10;;;20.30;99.90;;;;;;5074570;28;20205;-81
2023/05/15 10:19:21;;;;;;;0.10;0.10;;;20.20;99.90;;;;;;5073987;28;20208;-81
2023/05/15 10:21:47;;;;;;;0.10;0.10;;;20.20;99.90;;;;;;5076106;28;20191;-81
2023/05/15 10:24:15;;;;;;;0.10;0.10;;;20.40;99.90;;;;;;5075660;28;20286;-81
2023/05/15 10:26:42;;;;;;;0.10;0.10;;;21.10;99.90;;;;;;5074251;28;20185;-81
2023/05/15 10:29:12;;;;;;;0.10;0.10;;;20.90;99.90;;;;;;5072053;28;20256;-81
2023/05/15 10:31:41;;;;;;;0.10;0.10;;;21.00;99.90;;;;;;5073950;28;20184;-82
2023/05/15 10:34:08;;;;;;;0.10;0.10;;;21.60;99.90;;;;;;5066507;28;20278;-81
2023/05/15 10:36:37;;;;;;;0.10;0.10;;;21.30;99.90;;;;;;5070973;28;20195;-82
2023/05/15 10:39:06;;;;;;;0.10;0.10;;;21.20;99.90;;;;;;5070488;28;20208;-82
2023/05/15 10:41:38;;;;;;;0.10;0.10;;;20.70;99.90;;;;;;5069091;28;20294;-82
2023/05/15 10:44:05;;;;;;;3.50;2.33;;;20.70;99.90;;;;;;5076049;28;20199;-80
2023/05/15 10:46:33;;;;;;;0.10;0.10;;;20.10;99.90;;;;;;5079179;28;20197;-81
2023/05/15 10:49:00;;;;;;;0.10;0.10;;;19.80;99.90;;;;;;5078157;28;20214;-82
2023/05/15 10:51:28;;;;;;;0.10;0.10;;;19.70;99.90;;;;;;5076832;28;20188;-81
2023/05/15 10:53:55;;;;;;;0.10;0.10;;;19.80;99.90;;;;;;5076481;28;20337;-81
2023/05/15 10:56:25;;;;;;;0.10;0.10;;;20.00;99.90;;;;;;5077862;28;20827;-81
2023/05/15 10:58:53;;;;;;;0.10;0.10;;;20.40;99.90;;;;;;5073250;28;20192;-81
2023/05/15 11:01:26;;;;;;;0.10;0.10;;;20.70;99.90;;;;;;5073205;28;20240;-82
2023/05/15 11:04:21;;;;;;;0.10;0.10;;;21.20;99.90;;;;;;5071651;28;20215;-83
2023/05/15 11:06:49;;;;;;;0.10;0.10;;;21.20;99.90;;;;;;5072632;28;20275;-82
2023/05/15 11:09:21;;;;;;;0.10;0.10;;;21.00;99.90;;;;;;5074376;28;20184;-82
2023/05/15 11:11:57;;;;;;;0.10;0.10;;;20.60;99.90;;;;;;5074055;28;20189;-82
2023/05/15 11:14:24;;;;;;;0.10;0.10;;;21.00;99.90;;;;;;5079525;28;20685;-82
2023/05/15 11:16:53;;;;;;;0.10;0.10;;;21.40;99.90;;;;;;5077154;28;20307;-83
2023/05/15 11:19:28;;;;;;;0.10;0.10;;;21.80;99.90;;;;;;5080166;28;20610;-82
2023/05/15 11:22:01;;;;;;;0.10;0.10;;;22.30;99.90;;;;;;5079508;28;20740;-81
2023/05/15 11:24:32;;;;;;;0.10;0.10;;;22.40;99.90;;;;;;5078501;28;20623;-82
2023/05/15 11:27:01;;;;;;;0.10;0.10;;;22.30;99.90;;;;;;5081245;28;20196;-82
2023/05/15 11:29:27;;;;;;;0.10;0.10;;;22.40;99.90;;;;;;5079427;28;20204;-82
2023/05/15 11:31:53;;;;;;;0.10;0.10;;;22.50;99.90;;;;;;5075883;28;20250;-82
2023/05/15 11:34:32;;;;;;;0.10;0.10;;;21.70;99.90;;;;;;5072620;28;20240;-82
2023/05/15 11:36:59;;;;;;;0.10;0.10;;;21.50;99.90;;;;;;5073594;28;20322;-82
2023/05/15 11:39:25;;;;;;;0.10;0.10;;;21.80;99.90;;;;;;5075320;28;20905;-82
2023/05/15 11:41:52;;;;;;;0.10;0.10;;;21.80;99.90;;;;;;5072324;28;20181;-82
2023/05/15 11:44:22;;;;;;;0.10;0.10;;;21.90;99.90;;;;;;5066484;28;20205;-82
2023/05/15 11:46:49;;;;;;;0.10;0.10;;;22.30;99.90;;;;;;5085842;28;20311;-84
2023/05/15 11:49:18;;;;;;;0.10;0.10;;;21.90;99.90;;;;;;5065600;28;20185;-82
2023/05/15 11:51:44;;;;;;;0.10;0.10;;;22.20;99.90;;;;;;5066543;28;20618;-82
2023/05/15 11:54:13;;;;;;;0.10;0.10;;;22.10;99.90;;;;;;5069253;28;20209;-83
2023/05/15 11:56:43;;;;;;;0.10;0.10;;;22.50;99.90;;;;;;5071907;28;20181;-82
2023/05/15 11:59:12;;;;;;;0.10;0.10;;;22.30;99.90;;;;;;5069334;28;20187;-83
2023/05/15 12:01:41;;;;;;;0.10;0.10;;;22.70;99.90;;;;;;5070971;28;20189;-82
2023/05/15 12:04:14;;;;;;;0.10;0.10;;;22.90;99.90;;;;;;5072556;28;20246;-83
2023/05/15 12:06:40;;;;;;;0.10;0.10;;;23.20;99.90;;;;;;5073026;28;20536;-83
2023/05/15 12:09:13;;;;;;;0.10;0.10;;;22.70;99.90;;;;;;5071459;28;20184;-83
2023/05/15 12:11:39;;;;;;;0.10;0.10;;;22.80;99.90;;;;;;5072380;28;20267;-83
2023/05/15 12:14:04;;;;;;;0.10;0.10;;;22.60;99.90;;;;;;5072703;28;20292;-83
2023/05/15 12:16:30;;;;;;;0.10;0.10;;;22.80;99.90;;;;;;5071977;28;20546;-83
2023/05/15 12:18:56;;;;;;;0.10;0.10;;;22.40;99.90;;;;;;5071821;28;20204;-83
2023/05/15 12:21:21;;;;;;;0.10;0.10;;;22.70;99.90;;;;;;5073264;28;20180;-82
2023/05/15 12:23:52;;;;;;;0.10;0.10;;;22.10;99.90;;;;;;5074904;28;20776;-82
2023/05/15 12:26:20;;;;;;;0.10;0.10;;;22.00;99.90;;;;;;5071201;28;20215;-82
2023/05/15 12:28:45;;;;;;;0.10;0.10;;;22.40;99.90;;;;;;5073762;28;20252;-82
2023/05/15 12:31:12;;;;;;;0.10;0.10;;;22.00;99.90;;;;;;5074243;28;20279;-83
2023/05/15 12:33:37;;;;;;;0.10;0.10;;;22.20;99.90;;;;;;5074905;28;20209;-82
2023/05/15 12:36:03;;;;;;;0.10;0.10;;;22.60;99.90;;;;;;5072999;28;20532;-83
2023/05/15 12:38:29;;;;;;;0.10;0.10;;;22.80;99.90;;;;;;5070642;28;20236;-82
2023/05/15 12:40:55;;;;;;;0.10;0.10;;;22.70;99.90;;;;;;5071468;28;20180;-82
2023/05/15 12:43:25;;;;;;;0.10;0.10;;;22.50;99.90;;;;;;5071874;28;20192;-84
2023/05/15 12:45:55;;;;;;;0.10;0.10;;;22.10;99.90;;;;;;5072441;28;20208;-83
2023/05/15 12:48:20;;;;;;;0.10;0.10;;;21.70;99.90;;;;;;5074513;28;20650;-84